Terminal Aerodrome Forecast
Issued by NWS

Home | Current Version | Previous Version | Text Only | Print | Product List | Glossary Off
Versions: 1 2 3 4 5 6 7 8 9 10 11 12 13 14 15 16 17 18 19 20 21 22 23 24 25 26 27 28

000
FTUS43 KGRB 191736
TAFRHI
TAF
KRHI 191736Z 1918/2018 15007KT P6SM SCT200
     FM201000 15008KT P6SM BKN018
     FM201200 15009G14KT P6SM BKN015
      TEMPO 2012/2015 6SM -SHRA
     FM201500 17010G16KT P6SM -SHRA OVC015=

USA.gov is the U.S. government's official web portal to all federal, state and local government web resources and services.